sensor_id;sensor_type;location;lat;lon;timestamp;P1;durP1;ratioP1;P2;durP2;ratioP2
25107;SDS011;13090;53.422;7.670;2023-07-13T00:03:09;4.25;;;1.30;;
25107;SDS011;13090;53.422;7.670;2023-07-13T00:08:31;3.10;;;1.50;;
25107;SDS011;13090;53.422;7.670;2023-07-13T00:13:52;4.10;;;1.75;;
25107;SDS011;13090;53.422;7.670;2023-07-13T00:19:15;9.38;;;1.33;;
25107;SDS011;13090;53.422;7.670;2023-07-13T00:24:36;3.58;;;1.67;;
25107;SDS011;13090;53.422;7.670;2023-07-13T00:29:57;5.57;;;1.52;;
25107;SDS011;13090;53.422;7.670;2023-07-13T00:35:20;2.17;;;1.27;;
25107;SDS011;13090;53.422;7.670;2023-07-13T00:40:41;3.08;;;1.75;;
25107;SDS011;13090;53.422;7.670;2023-07-13T00:46:11;4.10;;;1.50;;
25107;SDS011;13090;53.422;7.670;2023-07-13T00:51:36;3.30;;;1.15;;
25107;SDS011;13090;53.422;7.670;2023-07-13T00:57:02;2.97;;;1.55;;
25107;SDS011;13090;53.422;7.670;2023-07-13T01:02:25;4.25;;;2.00;;
25107;SDS011;13090;53.422;7.670;2023-07-13T01:07:50;5.78;;;1.90;;
25107;SDS011;13090;53.422;7.670;2023-07-13T01:13:12;4.68;;;1.70;;
25107;SDS011;13090;53.422;7.670;2023-07-13T01:18:32;4.15;;;1.95;;
25107;SDS011;13090;53.422;7.670;2023-07-13T01:23:55;3.95;;;1.75;;
25107;SDS011;13090;53.422;7.670;2023-07-13T01:29:16;3.67;;;2.15;;
25107;SDS011;13090;53.422;7.670;2023-07-13T01:34:37;4.47;;;2.20;;
25107;SDS011;13090;53.422;7.670;2023-07-13T01:40:00;4.88;;;1.80;;
25107;SDS011;13090;53.422;7.670;2023-07-13T01:45:21;5.80;;;2.10;;
25107;SDS011;13090;53.422;7.670;2023-07-13T01:50:42;4.65;;;2.03;;
25107;SDS011;13090;53.422;7.670;2023-07-13T01:56:04;4.65;;;2.05;;
25107;SDS011;13090;53.422;7.670;2023-07-13T02:01:25;4.82;;;1.77;;
25107;SDS011;13090;53.422;7.670;2023-07-13T02:06:47;5.43;;;2.33;;
25107;SDS011;13090;53.422;7.670;2023-07-13T02:12:09;4.47;;;1.77;;
25107;SDS011;13090;53.422;7.670;2023-07-13T02:17:30;8.07;;;2.33;;
25107;SDS011;13090;53.422;7.670;2023-07-13T02:22:51;6.53;;;2.08;;
25107;SDS011;13090;53.422;7.670;2023-07-13T02:28:13;4.97;;;1.60;;
25107;SDS011;13090;53.422;7.670;2023-07-13T02:33:35;4.80;;;1.52;;
25107;SDS011;13090;53.422;7.670;2023-07-13T02:38:55;6.50;;;1.77;;
25107;SDS011;13090;53.422;7.670;2023-07-13T02:44:20;8.30;;;2.00;;
25107;SDS011;13090;53.422;7.670;2023-07-13T02:49:41;4.78;;;1.52;;
25107;SDS011;13090;53.422;7.670;2023-07-13T02:55:02;7.80;;;1.75;;
25107;SDS011;13090;53.422;7.670;2023-07-13T03:00:24;9.25;;;2.10;;
25107;SDS011;13090;53.422;7.670;2023-07-13T03:05:45;7.88;;;1.75;;
25107;SDS011;13090;53.422;7.670;2023-07-13T03:11:06;8.10;;;1.90;;
25107;SDS011;13090;53.422;7.670;2023-07-13T03:16:32;6.70;;;2.30;;
25107;SDS011;13090;53.422;7.670;2023-07-13T03:21:53;4.82;;;1.42;;
25107;SDS011;13090;53.422;7.670;2023-07-13T03:27:14;8.93;;;1.92;;
25107;SDS011;13090;53.422;7.670;2023-07-13T03:32:37;7.13;;;1.73;;
25107;SDS011;13090;53.422;7.670;2023-07-13T03:37:58;5.75;;;1.92;;
25107;SDS011;13090;53.422;7.670;2023-07-13T03:43:18;7.57;;;1.83;;
25107;SDS011;13090;53.422;7.670;2023-07-13T03:48:41;3.42;;;1.70;;
25107;SDS011;13090;53.422;7.670;2023-07-13T03:54:03;7.55;;;1.90;;
25107;SDS011;13090;53.422;7.670;2023-07-13T03:59:24;7.18;;;2.00;;
25107;SDS011;13090;53.422;7.670;2023-07-13T04:04:46;7.97;;;1.73;;
25107;SDS011;13090;53.422;7.670;2023-07-13T04:10:07;6.65;;;1.80;;
25107;SDS011;13090;53.422;7.670;2023-07-13T04:15:29;5.97;;;1.90;;
25107;SDS011;13090;53.422;7.670;2023-07-13T04:20:52;3.70;;;1.33;;
25107;SDS011;13090;53.422;7.670;2023-07-13T04:26:13;5.38;;;1.60;;
25107;SDS011;13090;53.422;7.670;2023-07-13T04:31:34;5.47;;;1.55;;
25107;SDS011;13090;53.422;7.670;2023-07-13T04:36:56;6.05;;;1.80;;
25107;SDS011;13090;53.422;7.670;2023-07-13T04:42:17;6.97;;;1.58;;
25107;SDS011;13090;53.422;7.670;2023-07-13T04:47:38;5.47;;;1.65;;
25107;SDS011;13090;53.422;7.670;2023-07-13T04:53:01;5.35;;;1.95;;
25107;SDS011;13090;53.422;7.670;2023-07-13T04:58:22;5.38;;;1.65;;
25107;SDS011;13090;53.422;7.670;2023-07-13T05:03:44;6.38;;;1.75;;
25107;SDS011;13090;53.422;7.670;2023-07-13T05:09:06;5.35;;;1.70;;
25107;SDS011;13090;53.422;7.670;2023-07-13T05:14:27;6.60;;;2.03;;
25107;SDS011;13090;53.422;7.670;2023-07-13T05:19:48;9.20;;;3.13;;
25107;SDS011;13090;53.422;7.670;2023-07-13T05:25:10;7.80;;;2.75;;
25107;SDS011;13090;53.422;7.670;2023-07-13T05:30:31;7.10;;;2.10;;
25107;SDS011;13090;53.422;7.670;2023-07-13T05:35:52;11.07;;;2.78;;
25107;SDS011;13090;53.422;7.670;2023-07-13T05:41:15;17.10;;;2.45;;
25107;SDS011;13090;53.422;7.670;2023-07-13T05:46:36;8.68;;;2.20;;
25107;SDS011;13090;53.422;7.670;2023-07-13T05:51:57;13.20;;;2.38;;
25107;SDS011;13090;53.422;7.670;2023-07-13T05:57:19;9.35;;;2.45;;
25107;SDS011;13090;53.422;7.670;2023-07-13T06:02:40;5.65;;;2.40;;
25107;SDS011;13090;53.422;7.670;2023-07-13T06:08:01;7.65;;;2.70;;
25107;SDS011;13090;53.422;7.670;2023-07-13T06:13:24;9.55;;;2.92;;
25107;SDS011;13090;53.422;7.670;2023-07-13T06:18:45;13.48;;;2.90;;
25107;SDS011;13090;53.422;7.670;2023-07-13T06:24:06;10.63;;;2.60;;
25107;SDS011;13090;53.422;7.670;2023-07-13T06:29:28;7.53;;;2.20;;
25107;SDS011;13090;53.422;7.670;2023-07-13T06:34:50;8.15;;;2.35;;
25107;SDS011;13090;53.422;7.670;2023-07-13T06:40:11;7.10;;;2.20;;
25107;SDS011;13090;53.422;7.670;2023-07-13T06:45:35;7.38;;;1.77;;
25107;SDS011;13090;53.422;7.670;2023-07-13T06:51:01;7.80;;;2.42;;
25107;SDS011;13090;53.422;7.670;2023-07-13T06:56:23;7.43;;;3.63;;
25107;SDS011;13090;53.422;7.670;2023-07-13T07:01:45;5.28;;;2.00;;
25107;SDS011;13090;53.422;7.670;2023-07-13T07:07:06;6.55;;;2.05;;
25107;SDS011;13090;53.422;7.670;2023-07-13T07:12:27;10.45;;;1.98;;
25107;SDS011;13090;53.422;7.670;2023-07-13T07:17:49;7.90;;;2.05;;
25107;SDS011;13090;53.422;7.670;2023-07-13T07:23:10;4.68;;;1.83;;
25107;SDS011;13090;53.422;7.670;2023-07-13T07:28:31;5.38;;;1.48;;
25107;SDS011;13090;53.422;7.670;2023-07-13T07:33:56;3.08;;;1.25;;
25107;SDS011;13090;53.422;7.670;2023-07-13T07:39:18;4.50;;;1.83;;
25107;SDS011;13090;53.422;7.670;2023-07-13T07:44:39;4.93;;;1.50;;
25107;SDS011;13090;53.422;7.670;2023-07-13T07:50:02;4.38;;;1.27;;
25107;SDS011;13090;53.422;7.670;2023-07-13T07:55:23;4.22;;;1.27;;
25107;SDS011;13090;53.422;7.670;2023-07-13T08:00:47;3.30;;;1.20;;
25107;SDS011;13090;53.422;7.670;2023-07-13T08:06:13;5.68;;;1.30;;
25107;SDS011;13090;53.422;7.670;2023-07-13T08:11:54;5.22;;;1.20;;
25107;SDS011;13090;53.422;7.670;2023-07-13T08:17:18;3.25;;;1.23;;
25107;SDS011;13090;53.422;7.670;2023-07-13T08:22:40;5.13;;;1.35;;
25107;SDS011;13090;53.422;7.670;2023-07-13T08:28:02;5.05;;;1.20;;
25107;SDS011;13090;53.422;7.670;2023-07-13T08:33:23;4.10;;;1.20;;
25107;SDS011;13090;53.422;7.670;2023-07-13T08:38:46;3.13;;;0.98;;
25107;SDS011;13090;53.422;7.670;2023-07-13T08:44:07;2.28;;;1.13;;
25107;SDS011;13090;53.422;7.670;2023-07-13T08:49:39;6.20;;;1.50;;
25107;SDS011;13090;53.422;7.670;2023-07-13T08:55:04;4.20;;;1.35;;
25107;SDS011;13090;53.422;7.670;2023-07-13T09:00:35;3.38;;;1.20;;
25107;SDS011;13090;53.422;7.670;2023-07-13T09:06:02;2.72;;;1.15;;
25107;SDS011;13090;53.422;7.670;2023-07-13T09:11:30;3.97;;;1.17;;
25107;SDS011;13090;53.422;7.670;2023-07-13T09:16:58;2.63;;;1.00;;
25107;SDS011;13090;53.422;7.670;2023-07-13T09:22:20;3.00;;;0.95;;
25107;SDS011;13090;53.422;7.670;2023-07-13T09:27:44;3.40;;;1.30;;
25107;SDS011;13090;53.422;7.670;2023-07-13T09:33:08;3.45;;;1.17;;
25107;SDS011;13090;53.422;7.670;2023-07-13T09:38:29;2.42;;;1.10;;
25107;SDS011;13090;53.422;7.670;2023-07-13T09:44:11;4.93;;;2.53;;
25107;SDS011;13090;53.422;7.670;2023-07-13T09:49:34;4.32;;;2.88;;
25107;SDS011;13090;53.422;7.670;2023-07-13T09:54:56;3.22;;;1.38;;
25107;SDS011;13090;53.422;7.670;2023-07-13T10:00:22;3.97;;;1.55;;
25107;SDS011;13090;53.422;7.670;2023-07-13T10:05:46;3.47;;;0.90;;
25107;SDS011;13090;53.422;7.670;2023-07-13T10:11:09;2.03;;;1.00;;
25107;SDS011;13090;53.422;7.670;2023-07-13T10:16:34;2.28;;;1.20;;
25107;SDS011;13090;53.422;7.670;2023-07-13T10:21:56;2.90;;;1.23;;
25107;SDS011;13090;53.422;7.670;2023-07-13T10:27:18;6.07;;;1.23;;
25107;SDS011;13090;53.422;7.670;2023-07-13T10:32:42;5.03;;;1.30;;
25107;SDS011;13090;53.422;7.670;2023-07-13T10:38:04;1.98;;;0.98;;
25107;SDS011;13090;53.422;7.670;2023-07-13T10:43:32;1.05;;;0.80;;
25107;SDS011;13090;53.422;7.670;2023-07-13T10:48:58;1.98;;;1.02;;
25107;SDS011;13090;53.422;7.670;2023-07-13T10:54:26;2.65;;;1.10;;
25107;SDS011;13090;53.422;7.670;2023-07-13T10:59:49;1.17;;;0.85;;
25107;SDS011;13090;53.422;7.670;2023-07-13T11:05:30;1.55;;;1.13;;
25107;SDS011;13090;53.422;7.670;2023-07-13T11:10:53;6.57;;;3.88;;
25107;SDS011;13090;53.422;7.670;2023-07-13T11:22:09;3.08;;;1.20;;
25107;SDS011;13090;53.422;7.670;2023-07-13T11:27:37;3.28;;;1.20;;
25107;SDS011;13090;53.422;7.670;2023-07-13T11:33:02;2.38;;;0.88;;
25107;SDS011;13090;53.422;7.670;2023-07-13T11:38:35;3.45;;;2.15;;
25107;SDS011;13090;53.422;7.670;2023-07-13T11:44:02;4.18;;;1.00;;
25107;SDS011;13090;53.422;7.670;2023-07-13T11:49:29;2.45;;;0.90;;
25107;SDS011;13090;53.422;7.670;2023-07-13T11:54:55;0.93;;;0.65;;
25107;SDS011;13090;53.422;7.670;2023-07-13T12:00:18;1.25;;;0.98;;
25107;SDS011;13090;53.422;7.670;2023-07-13T12:05:54;1.75;;;1.00;;
25107;SDS011;13090;53.422;7.670;2023-07-13T12:11:17;1.60;;;0.80;;
25107;SDS011;13090;53.422;7.670;2023-07-13T12:16:40;1.23;;;1.02;;
25107;SDS011;13090;53.422;7.670;2023-07-13T12:22:02;5.68;;;1.08;;
25107;SDS011;13090;53.422;7.670;2023-07-13T12:27:25;1.45;;;1.00;;
25107;SDS011;13090;53.422;7.670;2023-07-13T12:32:54;2.58;;;1.13;;
25107;SDS011;13090;53.422;7.670;2023-07-13T12:38:16;0.80;;;0.80;;
25107;SDS011;13090;53.422;7.670;2023-07-13T12:43:39;0.85;;;0.85;;
25107;SDS011;13090;53.422;7.670;2023-07-13T12:49:00;2.33;;;0.90;;
25107;SDS011;13090;53.422;7.670;2023-07-13T12:54:38;5.20;;;1.33;;
25107;SDS011;13090;53.422;7.670;2023-07-13T13:05:59;2.30;;;1.10;;
25107;SDS011;13090;53.422;7.670;2023-07-13T13:11:23;1.92;;;0.93;;
25107;SDS011;13090;53.422;7.670;2023-07-13T13:16:50;1.98;;;1.08;;
25107;SDS011;13090;53.422;7.670;2023-07-13T13:22:12;3.05;;;1.05;;
25107;SDS011;13090;53.422;7.670;2023-07-13T13:27:33;2.88;;;1.10;;
25107;SDS011;13090;53.422;7.670;2023-07-13T13:32:56;3.90;;;1.27;;
25107;SDS011;13090;53.422;7.670;2023-07-13T13:38:17;4.97;;;0.90;;
25107;SDS011;13090;53.422;7.670;2023-07-13T13:43:41;3.05;;;1.20;;
25107;SDS011;13090;53.422;7.670;2023-07-13T13:49:04;3.90;;;1.45;;
25107;SDS011;13090;53.422;7.670;2023-07-13T13:54:25;4.57;;;1.90;;
25107;SDS011;13090;53.422;7.670;2023-07-13T13:59:46;3.72;;;1.80;;
25107;SDS011;13090;53.422;7.670;2023-07-13T14:05:11;6.35;;;1.30;;
25107;SDS011;13090;53.422;7.670;2023-07-13T14:10:33;2.72;;;1.10;;
25107;SDS011;13090;53.422;7.670;2023-07-13T14:15:54;7.00;;;1.42;;
25107;SDS011;13090;53.422;7.670;2023-07-13T14:21:17;3.53;;;1.17;;
25107;SDS011;13090;53.422;7.670;2023-07-13T14:26:40;4.22;;;1.13;;
25107;SDS011;13090;53.422;7.670;2023-07-13T14:32:02;5.03;;;1.00;;
25107;SDS011;13090;53.422;7.670;2023-07-13T14:37:26;2.15;;;0.80;;
25107;SDS011;13090;53.422;7.670;2023-07-13T14:42:48;3.53;;;1.25;;
25107;SDS011;13090;53.422;7.670;2023-07-13T14:48:12;3.53;;;1.13;;
25107;SDS011;13090;53.422;7.670;2023-07-13T14:53:37;1.85;;;0.85;;
25107;SDS011;13090;53.422;7.670;2023-07-13T14:58:58;2.38;;;0.88;;
25107;SDS011;13090;53.422;7.670;2023-07-13T15:04:19;2.85;;;0.85;;
25107;SDS011;13090;53.422;7.670;2023-07-13T15:09:41;2.90;;;1.10;;
25107;SDS011;13090;53.422;7.670;2023-07-13T15:15:02;2.70;;;1.45;;
25107;SDS011;13090;53.422;7.670;2023-07-13T15:20:25;3.65;;;1.45;;
25107;SDS011;13090;53.422;7.670;2023-07-13T15:25:52;4.03;;;1.17;;
25107;SDS011;13090;53.422;7.670;2023-07-13T15:31:20;5.00;;;1.40;;
25107;SDS011;13090;53.422;7.670;2023-07-13T15:36:42;3.40;;;1.10;;
25107;SDS011;13090;53.422;7.670;2023-07-13T15:42:05;3.53;;;1.00;;
25107;SDS011;13090;53.422;7.670;2023-07-13T15:47:28;4.07;;;1.30;;
25107;SDS011;13090;53.422;7.670;2023-07-13T15:52:49;3.22;;;1.08;;
25107;SDS011;13090;53.422;7.670;2023-07-13T15:58:13;5.70;;;1.17;;
25107;SDS011;13090;53.422;7.670;2023-07-13T16:03:34;3.53;;;1.48;;
25107;SDS011;13090;53.422;7.670;2023-07-13T16:08:56;3.67;;;1.02;;
25107;SDS011;13090;53.422;7.670;2023-07-13T16:14:19;3.13;;;1.35;;
25107;SDS011;13090;53.422;7.670;2023-07-13T16:19:40;6.25;;;1.25;;
25107;SDS011;13090;53.422;7.670;2023-07-13T16:25:02;2.60;;;0.95;;
25107;SDS011;13090;53.422;7.670;2023-07-13T16:30:38;3.55;;;1.30;;
25107;SDS011;13090;53.422;7.670;2023-07-13T16:36:00;2.63;;;1.40;;
25107;SDS011;13090;53.422;7.670;2023-07-13T16:41:20;6.03;;;2.83;;
25107;SDS011;13090;53.422;7.670;2023-07-13T16:46:43;3.80;;;1.45;;
25107;SDS011;13090;53.422;7.670;2023-07-13T16:52:04;3.00;;;1.17;;
25107;SDS011;13090;53.422;7.670;2023-07-13T16:57:26;4.25;;;1.02;;
25107;SDS011;13090;53.422;7.670;2023-07-13T17:02:52;3.00;;;1.00;;
25107;SDS011;13090;53.422;7.670;2023-07-13T17:08:19;3.42;;;1.48;;
25107;SDS011;13090;53.422;7.670;2023-07-13T17:13:41;5.00;;;1.63;;
25107;SDS011;13090;53.422;7.670;2023-07-13T17:19:08;5.85;;;2.72;;
25107;SDS011;13090;53.422;7.670;2023-07-13T17:24:31;3.10;;;1.73;;
25107;SDS011;13090;53.422;7.670;2023-07-13T17:29:54;3.80;;;1.92;;
25107;SDS011;13090;53.422;7.670;2023-07-13T17:35:19;4.63;;;1.40;;
25107;SDS011;13090;53.422;7.670;2023-07-13T17:40:43;3.50;;;1.23;;
25107;SDS011;13090;53.422;7.670;2023-07-13T17:46:08;3.10;;;1.83;;
25107;SDS011;13090;53.422;7.670;2023-07-13T17:51:34;2.53;;;1.10;;
25107;SDS011;13090;53.422;7.670;2023-07-13T17:56:55;3.38;;;1.05;;
25107;SDS011;13090;53.422;7.670;2023-07-13T18:02:16;3.53;;;1.20;;
25107;SDS011;13090;53.422;7.670;2023-07-13T18:07:42;2.28;;;1.10;;
25107;SDS011;13090;53.422;7.670;2023-07-13T18:13:02;5.28;;;1.25;;
25107;SDS011;13090;53.422;7.670;2023-07-13T18:18:23;2.58;;;1.17;;
25107;SDS011;13090;53.422;7.670;2023-07-13T18:23:47;5.57;;;1.23;;
25107;SDS011;13090;53.422;7.670;2023-07-13T18:29:09;2.97;;;0.98;;
25107;SDS011;13090;53.422;7.670;2023-07-13T18:34:30;2.80;;;1.00;;
25107;SDS011;13090;53.422;7.670;2023-07-13T18:39:57;1.67;;;1.00;;
25107;SDS011;13090;53.422;7.670;2023-07-13T18:45:17;4.55;;;1.50;;
25107;SDS011;13090;53.422;7.670;2023-07-13T18:50:39;2.03;;;1.35;;
25107;SDS011;13090;53.422;7.670;2023-07-13T18:56:02;4.65;;;1.77;;
25107;SDS011;13090;53.422;7.670;2023-07-13T19:01:25;3.70;;;2.70;;
25107;SDS011;13090;53.422;7.670;2023-07-13T19:06:49;3.43;;;1.43;;
25107;SDS011;13090;53.422;7.670;2023-07-13T19:12:16;3.20;;;1.05;;
25107;SDS011;13090;53.422;7.670;2023-07-13T19:17:38;2.30;;;1.40;;
25107;SDS011;13090;53.422;7.670;2023-07-13T19:22:59;1.98;;;1.10;;
25107;SDS011;13090;53.422;7.670;2023-07-13T19:28:26;3.17;;;1.20;;
25107;SDS011;13090;53.422;7.670;2023-07-13T19:33:51;1.85;;;0.82;;
25107;SDS011;13090;53.422;7.670;2023-07-13T19:39:17;6.57;;;1.02;;
25107;SDS011;13090;53.422;7.670;2023-07-13T19:44:46;5.10;;;0.90;;
25107;SDS011;13090;53.422;7.670;2023-07-13T19:50:08;2.63;;;1.60;;
25107;SDS011;13090;53.422;7.670;2023-07-13T19:55:31;1.80;;;1.17;;
25107;SDS011;13090;53.422;7.670;2023-07-13T20:00:53;2.97;;;1.15;;
25107;SDS011;13090;53.422;7.670;2023-07-13T20:06:25;3.78;;;1.17;;
25107;SDS011;13090;53.422;7.670;2023-07-13T20:11:48;2.38;;;1.40;;
25107;SDS011;13090;53.422;7.670;2023-07-13T20:17:14;1.83;;;1.10;;
25107;SDS011;13090;53.422;7.670;2023-07-13T20:22:45;5.72;;;1.50;;
25107;SDS011;13090;53.422;7.670;2023-07-13T20:28:06;3.40;;;1.02;;
25107;SDS011;13090;53.422;7.670;2023-07-13T20:33:28;1.83;;;1.10;;
25107;SDS011;13090;53.422;7.670;2023-07-13T20:38:50;2.67;;;1.00;;
25107;SDS011;13090;53.422;7.670;2023-07-13T20:44:11;3.25;;;1.23;;
25107;SDS011;13090;53.422;7.670;2023-07-13T20:49:33;2.63;;;1.60;;
25107;SDS011;13090;53.422;7.670;2023-07-13T20:54:54;1.83;;;1.30;;
25107;SDS011;13090;53.422;7.670;2023-07-13T21:00:15;2.13;;;1.23;;
25107;SDS011;13090;53.422;7.670;2023-07-13T21:05:40;2.67;;;1.15;;
25107;SDS011;13090;53.422;7.670;2023-07-13T21:11:01;2.80;;;1.40;;
25107;SDS011;13090;53.422;7.670;2023-07-13T21:16:23;1.83;;;1.35;;
25107;SDS011;13090;53.422;7.670;2023-07-13T21:21:47;3.88;;;1.40;;
25107;SDS011;13090;53.422;7.670;2023-07-13T21:27:08;2.42;;;1.15;;
25107;SDS011;13090;53.422;7.670;2023-07-13T21:32:29;3.05;;;1.40;;
25107;SDS011;13090;53.422;7.670;2023-07-13T21:37:51;4.20;;;1.85;;
25107;SDS011;13090;53.422;7.670;2023-07-13T21:43:13;3.22;;;2.35;;
25107;SDS011;13090;53.422;7.670;2023-07-13T21:48:35;4.78;;;2.00;;
25107;SDS011;13090;53.422;7.670;2023-07-13T21:53:57;3.72;;;2.03;;
25107;SDS011;13090;53.422;7.670;2023-07-13T21:59:20;5.50;;;2.50;;
25107;SDS011;13090;53.422;7.670;2023-07-13T22:04:44;4.50;;;2.08;;
25107;SDS011;13090;53.422;7.670;2023-07-13T22:10:11;3.20;;;2.17;;
25107;SDS011;13090;53.422;7.670;2023-07-13T22:15:34;5.90;;;2.30;;
25107;SDS011;13090;53.422;7.670;2023-07-13T22:20:54;2.70;;;2.00;;
25107;SDS011;13090;53.422;7.670;2023-07-13T22:26:20;4.47;;;2.00;;
25107;SDS011;13090;53.422;7.670;2023-07-13T22:31:41;3.92;;;1.88;;
25107;SDS011;13090;53.422;7.670;2023-07-13T22:37:03;5.72;;;2.30;;
25107;SDS011;13090;53.422;7.670;2023-07-13T22:42:26;4.80;;;2.03;;
25107;SDS011;13090;53.422;7.670;2023-07-13T22:47:47;5.75;;;2.30;;
25107;SDS011;13090;53.422;7.670;2023-07-13T22:53:10;2.58;;;1.85;;
25107;SDS011;13090;53.422;7.670;2023-07-13T22:58:35;3.00;;;2.20;;
25107;SDS011;13090;53.422;7.670;2023-07-13T23:03:56;3.35;;;2.13;;
25107;SDS011;13090;53.422;7.670;2023-07-13T23:09:20;3.35;;;2.30;;
25107;SDS011;13090;53.422;7.670;2023-07-13T23:14:44;3.92;;;2.08;;
25107;SDS011;13090;53.422;7.670;2023-07-13T23:20:18;4.85;;;2.00;;
25107;SDS011;13090;53.422;7.670;2023-07-13T23:25:43;3.78;;;2.33;;
25107;SDS011;13090;53.422;7.670;2023-07-13T23:31:07;5.70;;;2.63;;
25107;SDS011;13090;53.422;7.670;2023-07-13T23:36:33;7.80;;;2.70;;
25107;SDS011;13090;53.422;7.670;2023-07-13T23:41:54;4.55;;;2.90;;
25107;SDS011;13090;53.422;7.670;2023-07-13T23:47:17;5.32;;;2.80;;
25107;SDS011;13090;53.422;7.670;2023-07-13T23:52:38;3.22;;;2.47;;
25107;SDS011;13090;53.422;7.670;2023-07-13T23:58:01;2.72;;;2.28;;
